createdAt,value
2023-02-09T00:01:10.728Z,7.05
2023-02-09T00:03:38.392Z,7.50
2023-02-09T00:06:06.295Z,7.18
2023-02-09T00:08:35.106Z,7.38
2023-02-09T00:11:06.452Z,6.82
2023-02-09T00:13:32.905Z,7.32
2023-02-09T00:16:01.586Z,7.20
2023-02-09T00:18:30.545Z,7.57
2023-02-09T00:20:58.066Z,7.30
2023-02-09T00:23:25.563Z,7.20
2023-02-09T00:25:54.428Z,7.40
2023-02-09T00:28:22.152Z,7.13
2023-02-09T00:30:49.572Z,7.57
2023-02-09T00:33:16.957Z,7.55
2023-02-09T00:35:44.486Z,8.07
2023-02-09T00:38:12.525Z,7.20
2023-02-09T00:40:40.082Z,7.85
2023-02-09T00:43:09.353Z,7.20
2023-02-09T00:45:36.779Z,7.20
2023-02-09T00:48:04.336Z,7.70
2023-02-09T00:50:31.707Z,7.00
2023-02-09T00:52:59.065Z,7.68
2023-02-09T00:55:26.456Z,7.30
2023-02-09T00:57:53.866Z,7.68
2023-02-09T01:00:22.669Z,8.18
2023-02-09T01:02:50.040Z,7.85
2023-02-09T01:05:17.636Z,7.25
2023-02-09T01:07:45.002Z,7.47
2023-02-09T01:10:12.370Z,7.18
2023-02-09T01:12:40.458Z,7.32
2023-02-09T01:15:08.904Z,7.70
2023-02-09T01:17:37.753Z,6.88
2023-02-09T01:20:05.898Z,6.93
2023-02-09T01:22:33.319Z,6.95
2023-02-09T01:25:01.005Z,7.25
2023-02-09T01:27:28.404Z,7.00
2023-02-09T01:29:55.793Z,7.07
2023-02-09T01:32:23.162Z,6.82
2023-02-09T01:34:52.676Z,6.93
2023-02-09T01:37:20.043Z,7.30
2023-02-09T01:39:47.425Z,7.45
2023-02-09T01:42:15.478Z,7.00
2023-02-09T01:45:17.179Z,7.28
2023-02-09T01:47:45.765Z,7.20
2023-02-09T01:50:14.626Z,7.82
2023-02-09T01:52:42.068Z,7.03
2023-02-09T01:55:11.874Z,7.32
2023-02-09T01:57:40.953Z,7.18
2023-02-09T02:00:09.970Z,7.25
2023-02-09T02:02:37.505Z,7.63
2023-02-09T02:05:05.939Z,7.35
2023-02-09T02:07:38.482Z,6.65
2023-02-09T02:10:06.512Z,7.00
2023-02-09T02:12:33.927Z,6.60
2023-02-09T02:15:01.312Z,6.95
2023-02-09T02:17:34.883Z,7.40
2023-02-09T02:20:44.193Z,6.85
2023-02-09T02:23:16.822Z,7.13
2023-02-09T02:26:19.696Z,7.47
2023-02-09T02:28:57.967Z,6.68
2023-02-09T02:31:38.466Z,6.97
2023-02-09T02:34:07.802Z,6.90
2023-02-09T02:36:38.203Z,7.10
2023-02-09T02:39:11.973Z,6.63
2023-02-09T02:41:56.430Z,6.50
2023-02-09T02:44:23.795Z,7.07
2023-02-09T02:46:53.767Z,7.60
2023-02-09T02:49:23.299Z,6.90
2023-02-09T02:51:51.243Z,7.15
2023-02-09T02:54:19.694Z,7.00
2023-02-09T02:56:48.002Z,6.30
2023-02-09T02:59:16.951Z,6.68
2023-02-09T03:01:46.772Z,7.07
2023-02-09T03:04:15.480Z,6.43
2023-02-09T03:06:42.872Z,7.20
2023-02-09T03:09:10.597Z,6.82
2023-02-09T03:11:40.005Z,7.53
2023-02-09T03:14:21.535Z,7.18
2023-02-09T03:16:50.532Z,6.88
2023-02-09T03:19:26.211Z,6.93
2023-02-09T03:21:55.665Z,7.45
2023-02-09T03:24:30.376Z,7.15
2023-02-09T03:27:00.055Z,6.60
2023-02-09T03:29:27.513Z,7.35
2023-02-09T03:31:54.909Z,7.00
2023-02-09T03:34:23.677Z,7.32
2023-02-09T03:36:51.868Z,6.68
2023-02-09T03:39:19.243Z,7.20
2023-02-09T03:41:46.801Z,6.68
2023-02-09T03:44:29.292Z,6.55
2023-02-09T03:46:57.736Z,6.80
2023-02-09T03:49:26.766Z,6.78
2023-02-09T03:51:54.209Z,6.45
2023-02-09T03:54:21.579Z,6.97
2023-02-09T03:56:49.031Z,6.32
2023-02-09T03:59:16.517Z,7.40
2023-02-09T04:01:43.892Z,6.60
2023-02-09T04:04:11.279Z,6.95
2023-02-09T04:06:39.985Z,6.70
2023-02-09T04:09:09.052Z,7.03
2023-02-09T04:11:36.424Z,6.30
2023-02-09T04:14:03.836Z,7.38
2023-02-09T04:16:31.285Z,6.93
2023-02-09T04:18:58.711Z,6.95
2023-02-09T04:21:26.092Z,6.80
2023-02-09T04:23:54.795Z,6.85
2023-02-09T04:26:22.189Z,7.20
2023-02-09T04:28:49.555Z,7.47
2023-02-09T04:31:17.099Z,7.15
2023-02-09T04:33:44.541Z,7.75
2023-02-09T04:36:12.096Z,7.25
2023-02-09T04:38:39.575Z,7.60
2023-02-09T04:41:08.273Z,7.18
2023-02-09T04:43:35.640Z,7.35
2023-02-09T04:46:03.072Z,7.00
2023-02-09T04:48:30.651Z,7.20
2023-02-09T04:50:58.080Z,7.57
2023-02-09T04:53:26.157Z,7.18
2023-02-09T04:55:53.820Z,7.15
2023-02-09T04:58:40.342Z,7.18
2023-02-09T05:01:08.028Z,7.07
2023-02-09T05:03:35.457Z,7.00
2023-02-09T05:06:03.754Z,7.53
2023-02-09T05:08:31.224Z,7.63
2023-02-09T05:10:58.652Z,6.82
2023-02-09T05:13:27.554Z,7.65
2023-02-09T05:15:54.961Z,7.30
2023-02-09T05:18:22.439Z,7.53
2023-02-09T05:20:50.200Z,7.72
2023-02-09T05:23:17.655Z,6.53
2023-02-09T05:25:47.251Z,7.57
2023-02-09T05:28:14.827Z,8.05
2023-02-09T05:30:43.956Z,7.18
2023-02-09T05:33:11.707Z,7.95
2023-02-09T05:35:39.120Z,7.60
2023-02-09T05:38:06.567Z,6.95
2023-02-09T05:40:33.918Z,8.20
2023-02-09T05:43:02.646Z,7.60
2023-02-09T05:45:30.032Z,7.53
2023-02-09T05:47:58.722Z,7.25
2023-02-09T05:50:26.086Z,8.02
2023-02-09T05:52:53.472Z,8.40
2023-02-09T05:55:20.837Z,8.25
2023-02-09T05:57:48.209Z,7.88
2023-02-09T06:00:16.467Z,7.85
2023-02-09T06:02:43.912Z,8.00
2023-02-09T06:05:12.613Z,8.27
2023-02-09T06:07:39.992Z,7.68
2023-02-09T06:10:08.080Z,8.20
2023-02-09T06:12:35.464Z,7.35
2023-02-09T06:15:02.845Z,8.40
2023-02-09T06:17:30.219Z,7.90
2023-02-09T06:19:57.594Z,8.43
2023-02-09T06:22:26.296Z,8.18
2023-02-09T06:24:53.670Z,8.48
2023-02-09T06:27:21.056Z,8.05
2023-02-09T06:29:48.421Z,7.90
2023-02-09T06:32:15.837Z,8.40
2023-02-09T06:34:43.275Z,8.48
2023-02-09T06:37:10.660Z,7.78
2023-02-09T06:39:39.325Z,8.45
2023-02-09T06:42:06.707Z,7.90
2023-02-09T06:44:34.079Z,8.93
2023-02-09T06:47:01.466Z,8.57
2023-02-09T06:49:28.839Z,9.85
2023-02-09T06:51:56.472Z,10.00
2023-02-09T06:54:24.008Z,10.10
2023-02-09T06:56:52.715Z,8.98
2023-02-09T06:59:20.248Z,9.80
2023-02-09T07:01:47.984Z,9.82
2023-02-09T07:04:15.361Z,9.10
2023-02-09T07:06:42.745Z,9.45
2023-02-09T07:09:10.116Z,9.15
2023-02-09T07:11:37.499Z,9.50
2023-02-09T07:14:06.175Z,9.80
2023-02-09T07:16:33.554Z,10.23
2023-02-09T07:19:01.014Z,10.18
2023-02-09T07:21:28.386Z,9.18
2023-02-09T07:23:55.744Z,11.35
2023-02-09T07:26:23.114Z,12.02
2023-02-09T07:28:50.482Z,41.42
2023-02-09T07:31:19.679Z,40.38
2023-02-09T07:33:47.106Z,45.47
2023-02-09T07:36:15.697Z,43.10
2023-02-09T07:38:43.202Z,44.45
2023-02-09T07:41:14.507Z,44.70
2023-02-09T07:43:42.043Z,41.35
2023-02-09T07:46:09.889Z,39.15
2023-02-09T07:48:38.657Z,39.75
2023-02-09T07:51:06.463Z,37.88
2023-02-09T07:53:33.889Z,37.97
2023-02-09T07:56:01.290Z,35.65
2023-02-09T07:58:28.692Z,33.90
2023-02-09T08:00:56.060Z,32.80
2023-02-09T08:03:23.798Z,30.00
2023-02-09T08:05:56.146Z,30.48
2023-02-09T08:08:23.528Z,30.10
2023-02-09T08:10:50.947Z,26.77
2023-02-09T08:13:18.331Z,25.50
2023-02-09T08:15:47.616Z,26.17
2023-02-09T08:18:16.706Z,23.65
2023-02-09T08:20:44.236Z,24.48
2023-02-09T08:23:15.521Z,22.85
2023-02-09T08:25:42.929Z,23.15
2023-02-09T08:28:10.418Z,21.20
2023-02-09T08:30:37.861Z,21.25
2023-02-09T08:33:05.273Z,19.65
2023-02-09T08:35:32.705Z,18.42
2023-02-09T08:38:00.937Z,18.95
2023-02-09T08:40:29.697Z,18.50
2023-02-09T08:42:57.105Z,18.00
2023-02-09T08:45:24.542Z,17.30
2023-02-09T08:47:52.009Z,17.27
2023-02-09T08:50:19.533Z,16.05
2023-02-09T08:52:46.902Z,15.10
2023-02-09T08:55:14.268Z,16.05
2023-02-09T08:57:44.606Z,15.25
2023-02-09T09:00:13.373Z,14.90
2023-02-09T09:02:40.764Z,14.10
2023-02-09T09:05:08.509Z,13.70
2023-02-09T09:07:35.941Z,14.90
2023-02-09T09:10:03.333Z,13.32
2023-02-09T09:12:30.875Z,12.68
2023-02-09T09:14:59.550Z,12.68
2023-02-09T09:17:26.959Z,13.27
2023-02-09T09:19:56.199Z,12.23
2023-02-09T09:22:23.637Z,13.20
2023-02-09T09:24:52.326Z,12.02
2023-02-09T09:27:19.719Z,12.25
2023-02-09T09:29:47.097Z,12.90
2023-02-09T09:32:15.859Z,13.50
2023-02-09T09:34:43.489Z,13.93
2023-02-09T09:37:10.872Z,14.07
2023-02-09T09:39:38.251Z,14.05
2023-02-09T09:42:06.052Z,16.45
2023-02-09T09:44:34.708Z,15.95
2023-02-09T09:47:04.075Z,15.27
2023-02-09T09:49:32.809Z,14.82
2023-02-09T09:52:01.086Z,14.48
2023-02-09T09:54:29.289Z,14.75
2023-02-09T09:56:56.655Z,14.23
2023-02-09T09:59:24.946Z,14.88
2023-02-09T10:01:52.876Z,14.55
2023-02-09T10:04:20.739Z,14.88
2023-02-09T10:06:53.323Z,14.48
2023-02-09T10:09:32.085Z,13.95
2023-02-09T10:12:04.396Z,13.23
2023-02-09T10:14:31.787Z,13.75
2023-02-09T10:16:59.330Z,12.60
2023-02-09T10:19:27.199Z,12.10
2023-02-09T10:21:55.903Z,11.95
2023-02-09T10:24:24.223Z,12.50
2023-02-09T10:27:07.546Z,12.65
2023-02-09T10:29:35.114Z,11.18
2023-02-09T10:32:06.297Z,11.52
2023-02-09T10:34:35.076Z,10.90
2023-02-09T10:37:15.359Z,10.90
2023-02-09T10:39:42.764Z,10.52
2023-02-09T10:42:18.079Z,9.65
2023-02-09T10:44:47.693Z,10.18
2023-02-09T10:47:27.123Z,10.13
2023-02-09T10:49:55.644Z,10.52
2023-02-09T10:52:24.870Z,10.63
2023-02-09T10:54:53.066Z,9.77
2023-02-09T10:57:25.164Z,10.18
2023-02-09T10:59:53.658Z,9.40
2023-02-09T11:02:31.320Z,10.02
2023-02-09T11:04:58.696Z,9.55
2023-02-09T11:07:30.230Z,9.07
2023-02-09T11:10:00.817Z,9.18
2023-02-09T11:12:28.837Z,8.35
2023-02-09T11:14:56.302Z,9.48
2023-02-09T11:17:24.294Z,9.10
2023-02-09T11:19:59.389Z,8.25
2023-02-09T11:22:37.476Z,9.27
2023-02-09T11:25:08.423Z,8.52
2023-02-09T11:27:44.364Z,8.82
2023-02-09T11:30:16.710Z,8.52
2023-02-09T11:32:45.806Z,8.88
2023-02-09T11:35:13.757Z,8.88
2023-02-09T11:37:47.383Z,8.80
2023-02-09T11:40:24.108Z,7.45
2023-02-09T11:42:56.400Z,8.65
2023-02-09T11:45:27.773Z,8.20
2023-02-09T11:47:59.653Z,8.18
2023-02-09T11:50:29.110Z,8.00
2023-02-09T11:52:58.516Z,7.75
2023-02-09T11:55:28.793Z,8.40
2023-02-09T12:00:26.464Z,7.53
2023-02-09T12:02:56.137Z,7.82
2023-02-09T12:05:23.645Z,7.78
2023-02-09T12:08:17.817Z,8.00
2023-02-09T12:10:48.847Z,6.75
2023-02-09T12:13:26.671Z,7.80
2023-02-09T12:15:54.779Z,7.68
2023-02-09T12:18:23.214Z,7.35
2023-02-09T12:20:53.253Z,7.88
2023-02-09T12:23:25.302Z,7.63
2023-02-09T12:25:54.688Z,8.25
2023-02-09T12:28:44.435Z,5.30
2023-02-09T12:31:19.733Z,7.18
2023-02-09T12:34:23.263Z,7.07
2023-02-09T12:37:02.033Z,6.85
2023-02-09T12:39:31.850Z,7.10
2023-02-09T12:42:23.055Z,7.45
2023-02-09T12:44:55.263Z,6.90
2023-02-09T12:47:43.568Z,7.07
2023-02-09T12:50:22.336Z,7.93
2023-02-09T12:53:27.177Z,7.50
2023-02-09T12:56:03.295Z,7.20
2023-02-09T12:58:38.057Z,7.30
2023-02-09T13:01:05.699Z,7.25
2023-02-09T13:03:33.700Z,7.97
2023-02-09T13:06:01.347Z,7.20
2023-02-09T13:08:37.507Z,7.45
2023-02-09T13:11:08.071Z,8.23
2023-02-09T13:13:42.552Z,7.55
2023-02-09T13:16:24.937Z,7.28
2023-02-09T13:18:54.607Z,7.57
2023-02-09T13:21:25.613Z,7.10
2023-02-09T13:23:59.049Z,7.35
2023-02-09T13:26:28.425Z,7.20
2023-02-09T13:29:19.917Z,7.18
2023-02-09T13:31:54.570Z,7.13
2023-02-09T13:34:25.053Z,6.75
2023-02-09T13:36:56.241Z,7.22
2023-02-09T13:39:24.975Z,6.90
2023-02-09T13:41:54.028Z,7.20
2023-02-09T13:44:25.472Z,7.43
2023-02-09T13:46:54.299Z,7.53
2023-02-09T13:49:22.536Z,7.18
2023-02-09T13:52:11.525Z,7.07
2023-02-09T13:54:39.057Z,7.38
2023-02-09T13:57:11.597Z,6.85
2023-02-09T13:59:42.079Z,6.97
2023-02-09T14:02:20.601Z,6.90
2023-02-09T14:04:50.332Z,6.70
2023-02-09T14:07:17.706Z,7.03
2023-02-09T14:09:46.538Z,6.95
2023-02-09T14:12:16.389Z,7.00
2023-02-09T14:15:03.160Z,7.15
2023-02-09T14:17:31.475Z,7.10
2023-02-09T14:19:59.667Z,6.50
2023-02-09T14:22:33.236Z,7.35
2023-02-09T14:25:00.631Z,6.78
2023-02-09T14:27:29.592Z,6.80
2023-02-09T14:29:56.985Z,6.43
2023-02-09T14:32:32.986Z,6.72
2023-02-09T14:35:01.518Z,6.80
2023-02-09T14:37:30.645Z,6.80
2023-02-09T14:40:00.672Z,6.65
2023-02-09T14:42:29.728Z,6.57
2023-02-09T14:44:58.017Z,6.45
2023-02-09T14:47:37.402Z,6.97
2023-02-09T14:50:04.892Z,6.88
2023-02-09T14:52:33.140Z,6.22
2023-02-09T14:55:02.887Z,6.40
2023-02-09T14:57:31.931Z,6.88
2023-02-09T14:59:59.320Z,6.63
2023-02-09T15:02:27.898Z,6.72
2023-02-09T15:04:55.451Z,6.43
2023-02-09T15:07:23.742Z,7.70
2023-02-09T15:09:51.127Z,7.38
2023-02-09T15:12:22.514Z,6.85
2023-02-09T15:14:51.262Z,7.05
2023-02-09T15:19:40.278Z,7.00
2023-02-09T15:22:08.493Z,6.88
2023-02-09T15:24:35.938Z,7.57
2023-02-09T15:27:03.487Z,7.32
2023-02-09T15:29:31.434Z,8.30
2023-02-09T15:32:00.124Z,7.80
2023-02-09T15:34:27.518Z,7.53
2023-02-09T15:36:54.950Z,7.18
2023-02-09T15:39:23.560Z,7.93
2023-02-09T15:42:08.516Z,7.28
2023-02-09T15:44:53.615Z,7.57
2023-02-09T15:47:40.024Z,7.82
2023-02-09T15:50:07.780Z,7.35
2023-02-09T15:52:35.174Z,7.32
2023-02-09T15:55:02.561Z,7.35
2023-02-09T15:57:29.930Z,7.65
2023-02-09T15:59:57.330Z,8.23
2023-02-09T16:02:26.219Z,8.27
2023-02-09T16:04:53.636Z,8.13
2023-02-09T16:07:23.247Z,7.65
2023-02-09T16:09:50.655Z,7.55
2023-02-09T16:12:18.111Z,7.68
2023-02-09T16:14:45.511Z,7.88
2023-02-09T16:17:12.889Z,7.15
2023-02-09T16:19:41.868Z,8.20
2023-02-09T16:22:09.287Z,7.05
2023-02-09T16:24:38.154Z,7.57
2023-02-09T16:27:11.736Z,7.57
2023-02-09T16:29:39.126Z,7.53
2023-02-09T16:32:07.483Z,8.07
2023-02-09T16:34:34.881Z,7.97
2023-02-09T16:37:03.600Z,8.27
2023-02-09T16:39:31.013Z,7.57
2023-02-09T16:42:00.756Z,8.30
2023-02-09T16:44:30.279Z,8.07
2023-02-09T16:46:58.202Z,8.75
2023-02-09T16:49:32.119Z,8.75
2023-02-09T16:52:03.102Z,8.70
2023-02-09T16:54:30.785Z,9.35
2023-02-09T16:56:58.290Z,8.52
2023-02-09T16:59:25.675Z,8.85
2023-02-09T17:01:53.149Z,8.30
2023-02-09T17:04:20.524Z,8.75
2023-02-09T17:06:48.919Z,8.95
2023-02-09T17:09:17.637Z,8.80
2023-02-09T17:11:45.039Z,8.65
2023-02-09T17:14:12.542Z,8.85
2023-02-09T17:16:41.462Z,8.48
2023-02-09T17:19:11.381Z,8.95
2023-02-09T17:21:39.767Z,8.82
2023-02-09T17:24:12.554Z,8.93
2023-02-09T17:26:41.337Z,8.32
2023-02-09T17:29:08.877Z,9.43
2023-02-09T17:31:51.804Z,8.80
2023-02-09T17:34:20.450Z,8.27
2023-02-09T17:36:47.841Z,8.38
2023-02-09T17:39:16.660Z,8.73
2023-02-09T17:41:46.433Z,8.23
2023-02-09T17:44:24.321Z,8.32
2023-02-09T17:46:56.286Z,8.48
2023-02-09T17:49:23.848Z,8.43
2023-02-09T17:51:51.470Z,7.80
2023-02-09T17:54:19.806Z,8.32
2023-02-09T17:56:48.504Z,7.93
2023-02-09T17:59:19.413Z,7.72
2023-02-09T18:01:49.446Z,7.63
2023-02-09T18:04:17.966Z,8.23
2023-02-09T18:06:45.375Z,8.02
2023-02-09T18:09:13.150Z,8.68
2023-02-09T18:11:42.840Z,7.82
2023-02-09T18:14:12.766Z,8.30
2023-02-09T18:16:41.063Z,8.05
2023-02-09T18:19:08.541Z,8.77
2023-02-09T18:21:35.988Z,8.52
2023-02-09T18:24:03.379Z,8.68
2023-02-09T18:26:30.773Z,9.20
2023-02-09T18:28:58.170Z,8.68
2023-02-09T18:31:26.925Z,8.30
2023-02-09T18:33:54.310Z,8.73
2023-02-09T18:36:21.733Z,9.05
2023-02-09T18:38:50.802Z,8.52
2023-02-09T18:41:18.201Z,8.80
2023-02-09T18:43:45.621Z,7.60
2023-02-09T18:46:13.760Z,7.53
2023-02-09T18:48:42.475Z,8.20
2023-02-09T18:51:10.105Z,8.15
2023-02-09T18:53:37.556Z,8.05
2023-02-09T18:56:05.488Z,8.18
2023-02-09T18:58:32.890Z,8.10
2023-02-09T19:01:00.281Z,7.65
2023-02-09T19:03:27.704Z,8.15
2023-02-09T19:05:56.412Z,8.02
2023-02-09T19:08:23.821Z,8.32
2023-02-09T19:10:51.255Z,8.07
2023-02-09T19:13:18.636Z,8.43
2023-02-09T19:15:46.415Z,8.52
2023-02-09T19:18:14.069Z,8.48
2023-02-09T19:20:41.437Z,8.35
2023-02-09T19:23:10.185Z,8.38
2023-02-09T19:25:37.707Z,8.60
2023-02-09T19:28:05.363Z,8.30
2023-02-09T19:30:32.852Z,8.52
2023-02-09T19:33:01.890Z,7.85
2023-02-09T19:35:29.709Z,8.27
2023-02-09T19:37:57.732Z,8.40
2023-02-09T19:40:35.321Z,7.97
2023-02-09T19:43:02.792Z,8.02
2023-02-09T19:45:36.061Z,8.40
2023-02-09T19:48:03.922Z,8.35
2023-02-09T19:50:31.306Z,8.05
2023-02-09T19:52:59.213Z,8.65
2023-02-09T19:55:27.952Z,8.23
2023-02-09T19:57:55.340Z,7.97
2023-02-09T20:00:22.713Z,7.97
2023-02-09T20:02:50.201Z,8.55
2023-02-09T20:05:17.905Z,8.88
2023-02-09T20:07:45.298Z,8.93
2023-02-09T20:10:12.858Z,7.85
2023-02-09T20:12:41.702Z,8.77
2023-02-09T20:15:09.454Z,8.80
2023-02-09T20:17:36.882Z,8.68
2023-02-09T20:20:04.782Z,8.48
2023-02-09T20:22:32.165Z,9.13
2023-02-09T20:24:59.571Z,8.55
2023-02-09T20:27:26.982Z,8.98
2023-02-09T20:30:01.064Z,9.18
2023-02-09T20:32:28.717Z,8.43
2023-02-09T20:34:56.245Z,9.35
2023-02-09T20:37:23.700Z,9.18
2023-02-09T20:39:51.089Z,9.50
2023-02-09T20:42:36.759Z,9.52
2023-02-09T20:45:24.088Z,9.65
2023-02-09T20:47:51.846Z,9.15
2023-02-09T20:50:19.942Z,9.90
2023-02-09T20:52:47.406Z,9.75
2023-02-09T20:55:14.828Z,10.45
2023-02-09T20:57:42.411Z,10.30
2023-02-09T21:00:12.392Z,10.50
2023-02-09T21:02:39.835Z,10.68
2023-02-09T21:05:07.553Z,9.85
2023-02-09T21:07:35.163Z,10.10
2023-02-09T21:10:02.550Z,10.50
2023-02-09T21:12:30.002Z,10.35
2023-02-09T21:14:58.716Z,10.20
2023-02-09T21:17:27.508Z,9.93
2023-02-09T21:19:54.922Z,9.70
2023-02-09T21:22:22.351Z,9.57
2023-02-09T21:24:49.755Z,9.68
2023-02-09T21:27:17.166Z,9.23
2023-02-09T21:29:44.543Z,10.07
2023-02-09T21:32:11.968Z,9.60
2023-02-09T21:34:40.690Z,9.25
2023-02-09T21:37:12.615Z,9.68
2023-02-09T21:39:40.041Z,9.43
2023-02-09T21:42:25.481Z,9.23
2023-02-09T21:44:53.995Z,9.07
2023-02-09T21:47:21.398Z,9.73
2023-02-09T21:49:50.331Z,9.68
2023-02-09T21:52:17.710Z,9.35
2023-02-09T21:54:45.087Z,9.45
2023-02-09T21:57:12.486Z,9.88
2023-02-09T21:59:39.879Z,8.95
2023-02-09T22:02:07.267Z,9.45
2023-02-09T22:04:34.642Z,9.30
2023-02-09T22:07:03.426Z,8.35
2023-02-09T22:09:30.805Z,8.73
2023-02-09T22:11:58.229Z,9.50
2023-02-09T22:14:25.621Z,8.70
2023-02-09T22:16:53.006Z,8.65
2023-02-09T22:19:20.399Z,8.77
2023-02-09T22:21:47.782Z,9.25
2023-02-09T22:24:16.718Z,8.60
2023-02-09T22:26:44.133Z,8.75
2023-02-09T22:29:11.752Z,9.38
2023-02-09T22:31:39.160Z,8.38
2023-02-09T22:34:07.298Z,8.77
2023-02-09T22:36:34.883Z,8.73
2023-02-09T22:39:02.633Z,9.18
2023-02-09T22:41:31.347Z,9.60
2023-02-09T22:43:59.467Z,9.90
2023-02-09T22:46:28.192Z,9.05
2023-02-09T22:48:56.870Z,9.85
2023-02-09T22:51:24.783Z,9.27
2023-02-09T22:53:52.220Z,9.68
2023-02-09T22:56:19.649Z,9.45
2023-02-09T22:58:48.371Z,9.45
2023-02-09T23:01:15.891Z,11.02
2023-02-09T23:03:43.334Z,9.32
2023-02-09T23:06:15.066Z,10.77
2023-02-09T23:08:42.494Z,10.20
2023-02-09T23:11:11.373Z,10.00
2023-02-09T23:13:38.945Z,10.07
2023-02-09T23:16:09.622Z,9.73
2023-02-09T23:18:37.159Z,10.57
2023-02-09T23:21:04.900Z,11.35
2023-02-09T23:23:32.300Z,11.20
2023-02-09T23:25:59.679Z,10.15
2023-02-09T23:28:27.407Z,9.05
2023-02-09T23:30:54.852Z,10.10
2023-02-09T23:33:23.630Z,10.60
2023-02-09T23:35:51.036Z,9.82
2023-02-09T23:38:19.915Z,10.68
2023-02-09T23:40:47.286Z,9.85
2023-02-09T23:43:14.705Z,9.70
2023-02-09T23:45:42.121Z,9.93
2023-02-09T23:48:09.517Z,10.38
2023-02-09T23:50:38.203Z,10.50
2023-02-09T23:53:05.984Z,9.65
2023-02-09T23:55:33.389Z,11.38
2023-02-09T23:58:00.781Z,9.88
